Time;durP1;ratioP1;P1;durP2;ratioP2;P2;SDS_P1;SDS_P2;PMS_P1;PMS_P2;Temp;Humidity;BMP_temperature;BMP_pressure;BME280_temperature;BME280_humidity;BME280_pressure;Samples;Min_cycle;Max_cycle;Signal;HPM_P1;HPM_P2
2022/02/28 00:00:29;;;;;;;14.52;8.13;;;;;;;-0.77;100.00;66695.88;5039972;28;20440;-84
2022/02/28 00:02:56;;;;;;;29.48;17.92;;;;;;;-0.77;100.00;66701.13;5045378;28;20079;-85
2022/02/28 00:05:22;;;;;;;13.15;7.60;;;;;;;-0.80;100.00;66697.19;5041811;28;20041;-84
2022/02/28 00:07:49;;;;;;;12.70;8.40;;;;;;;-0.83;100.00;66693.81;5064888;28;20045;-84
2022/02/28 00:10:16;;;;;;;13.70;7.97;;;;;;;-0.89;100.00;66682.41;5056254;28;20036;-84
2022/02/28 00:12:43;;;;;;;12.95;7.95;;;;;;;-0.91;100.00;66685.94;5034207;28;20319;-85
2022/02/28 00:15:09;;;;;;;15.05;7.90;;;;;;;;;;5036129;28;20320;-85
2022/02/28 00:17:34;;;;;;;13.15;8.10;;;;;;;;;;5047315;28;20044;-84
2022/02/28 00:20:00;;;;;;;12.82;8.20;;;;;;;-0.88;100.00;66686.13;5056383;28;20429;-84
2022/02/28 00:22:26;;;;;;;13.05;8.07;;;;;;;-0.94;100.00;66682.56;5035554;28;20425;-84
2022/02/28 00:24:51;;;;;;;12.88;8.02;;;;;;;-0.88;100.00;66686.13;5063058;28;20041;-85
2022/02/28 00:27:17;;;;;;;11.95;8.52;;;;;;;-0.91;100.00;66685.38;5042168;28;20042;-85
2022/02/28 00:29:42;;;;;;;13.23;8.25;;;;;;;-0.94;100.00;66676.78;5043264;28;20405;-85
2022/02/28 00:32:08;;;;;;;24.30;8.38;;;;;;;-1.01;100.00;66672.09;5035298;28;20038;-84
2022/02/28 00:34:33;;;;;;;11.38;8.13;;;;;;;-0.99;100.00;66674.34;5045910;28;20477;-84
2022/02/28 00:37:00;;;;;;;14.77;8.52;;;;;;;-1.08;100.00;66666.28;5042572;28;20041;-84
2022/02/28 00:39:26;;;;;;;15.90;9.30;;;;;;;-1.02;100.00;66670.41;5028916;28;20040;-85
2022/02/28 00:41:51;;;;;;;13.60;8.88;;;;;;;-1.04;100.00;66671.31;5038349;28;20128;-85
2022/02/28 00:44:17;;;;;;;17.27;9.05;;;;;;;-1.07;100.00;66665.34;5050619;28;20045;-84
2022/02/28 00:46:42;;;;;;;14.40;9.27;;;;;;;-1.07;100.00;66664.78;5040271;28;20041;-84
2022/02/28 00:49:07;;;;;;;15.82;9.65;;;;;;;-1.07;100.00;66667.97;5035899;28;20072;-85
2022/02/28 00:51:33;;;;;;;13.05;8.60;;;;;;;-1.13;100.00;66661.78;5040485;28;20041;-82
2022/02/28 00:53:58;;;;;;;16.25;9.23;;;;;;;-1.16;100.00;66652.63;5044294;28;20037;-82
2022/02/28 00:56:24;;;;;;;13.85;8.70;;;;;;;-1.18;100.00;66653.00;5053870;28;20960;-85
2022/02/28 00:58:49;;;;;;;15.75;9.05;;;;;;;-1.23;100.00;66650.56;5053824;28;20517;-84
2022/02/28 01:01:15;;;;;;;16.42;9.10;;;;;;;-1.21;100.00;66649.63;5040697;28;20033;-82
2022/02/28 01:03:40;;;;;;;17.30;8.73;;;;;;;-1.29;100.00;66643.81;5045192;28;20125;-83
2022/02/28 01:06:06;;;;;;;13.75;8.60;;;;;;;-1.30;100.00;66644.75;5039387;28;20041;-82
2022/02/28 01:08:31;;;;;;;15.25;9.25;;;;;;;-1.26;100.00;66644.03;5048211;28;20402;-84
2022/02/28 01:10:57;;;;;;;15.20;9.90;;;;;;;-1.31;100.00;66636.34;5044278;28;20045;-84
2022/02/28 01:13:22;;;;;;;15.35;9.07;;;;;;;-1.36;100.00;66633.34;5044306;28;20083;-85
2022/02/28 01:15:48;;;;;;;15.15;8.55;;;;;;;-1.40;100.00;66632.03;5036338;28;20041;-85
2022/02/28 01:18:15;;;;;;;14.10;9.40;;;;;;;-1.39;100.00;66630.53;5030732;28;20191;-83
2022/02/28 01:20:40;;;;;;;15.20;9.82;;;;;;;-1.35;100.00;66637.09;5037325;28;20099;-84
2022/02/28 01:23:06;;;;;;;16.23;10.18;;;;;;;-1.37;100.00;66634.84;5048721;28;20049;-85
2022/02/28 01:25:31;;;;;;;13.45;9.27;;;;;;;-1.40;100.00;66636.69;5035748;28;20041;-84
2022/02/28 01:27:57;;;;;;;15.57;10.02;;;;;;;-1.39;100.00;66629.97;5036616;28;20478;-84
2022/02/28 01:30:23;;;;;;;13.93;9.38;;;;;;;-1.41;100.00;66630.34;5051121;28;20045;-84
2022/02/28 01:32:48;;;;;;;14.35;9.15;;;;;;;-1.52;100.00;66618.00;5036409;28;20069;-84
2022/02/28 01:35:14;;;;;;;14.48;9.85;;;;;;;-1.57;100.00;66609.78;5033030;28;20490;-84
2022/02/28 01:37:41;;;;;;;15.88;9.65;;;;;;;-1.50;100.00;66615.56;5021790;28;20045;-84
2022/02/28 01:40:11;;;;;;;17.05;8.55;;;;;;;-1.69;100.00;66594.81;5053938;28;20053;-84
2022/02/28 01:42:36;;;;;;;13.65;9.60;;;;;;;-1.55;100.00;66615.19;5024436;28;20037;-85
2022/02/28 01:45:03;;;;;;;16.88;10.20;;;;;;;-1.51;100.00;66614.44;5034385;28;20407;-84
2022/02/28 01:47:28;;;;;;;19.85;10.95;;;;;;;-1.52;100.00;66615.38;5028955;28;20116;-84
2022/02/28 01:49:54;;;;;;;16.48;10.40;;;;;;;-1.49;100.00;66621.94;5036461;28;20043;-84
2022/02/28 01:52:23;;;;;;;13.50;9.50;;;;;;;-1.53;100.00;66614.25;5034249;28;20048;-83
2022/02/28 01:54:49;;;;;;;15.93;9.85;;;;;;;-1.60;100.00;66604.34;5030667;28;20516;-84
2022/02/28 01:57:14;;;;;;;22.92;13.52;;;;;;;-1.59;100.00;66613.84;5005462;28;20160;-84
2022/02/28 01:59:40;;;;;;;19.23;11.75;;;;;;;-1.71;100.00;66597.78;5056466;28;20094;-84
2022/02/28 02:02:05;;;;;;;17.67;10.68;;;;;;;-1.72;100.00;66596.66;5041445;28;20401;-85
2022/02/28 02:04:32;;;;;;;16.02;10.70;;;;;;;-1.64;100.00;66605.06;5054028;28;20055;-85
2022/02/28 02:06:57;;;;;;;15.60;10.15;;;;;;;-1.66;100.00;66603.41;5048499;28;20052;-84
2022/02/28 02:09:28;;;;;;;19.40;10.80;;;;;;;-1.72;100.00;66596.09;5033126;28;20049;-84
2022/02/28 02:11:55;;;;;;;15.98;10.40;;;;;;;-1.71;100.00;66595.16;5048389;28;20049;-84
2022/02/28 02:14:27;;;;;;;16.80;10.23;;;;;;;-1.72;100.00;66596.66;5036418;28;20033;-83
2022/02/28 02:16:58;;;;;;;14.95;10.40;;;;;;;-1.75;100.00;66595.34;5028929;28;20035;-84
2022/02/28 02:19:23;;;;;;;14.75;9.50;;;;;;;-1.79;100.00;66588.78;5043941;28;20052;-85
2022/02/28 02:21:49;;;;;;;15.27;9.95;;;;;;;-1.75;100.00;66592.75;5070410;28;20033;-83
2022/02/28 02:24:15;;;;;;;16.00;9.88;;;;;;;-1.72;100.00;66596.09;5073175;28;20094;-83
2022/02/28 02:26:40;;;;;;;16.60;10.63;;;;;;;-1.74;100.00;66591.81;5037026;28;20037;-84
2022/02/28 02:29:05;;;;;;;15.50;10.05;;;;;;;-1.81;100.00;66589.16;5060785;28;20061;-83
2022/02/28 02:31:31;;;;;;;15.77;9.77;;;;;;;-1.83;100.00;66579.66;5037890;28;20508;-83
2022/02/28 02:33:57;;;;;;;13.93;10.23;;;;;;;-1.88;100.00;66576.09;5065737;28;20041;-83
2022/02/28 02:36:22;;;;;;;14.73;9.38;;;;;;;-1.90;100.00;66576.44;5051670;28;20047;-83
2022/02/28 02:38:48;;;;;;;15.40;9.95;;;;;;;-1.86;100.00;66581.50;5036171;28;20063;-83
2022/02/28 02:41:14;;;;;;;16.58;10.15;;;;;;;-1.89;100.00;66574.97;5033982;28;20442;-84
2022/02/28 02:43:39;;;;;;;14.35;9.10;;;;;;;-1.89;100.00;66575.53;5055367;28;20037;-85
2022/02/28 02:46:05;;;;;;;15.57;9.65;;;;;;;-1.85;100.00;66582.63;5063793;28;20394;-84
2022/02/28 02:48:31;;;;;;;15.30;9.60;;;;;;;-1.90;100.00;66573.84;5065709;28;20044;-84
2022/02/28 02:50:56;;;;;;;15.40;10.23;;;;;;;-1.90;100.00;66573.84;5030765;28;20048;-84
2022/02/28 02:53:22;;;;;;;17.15;11.35;;;;;;;-1.95;100.00;66568.25;5048839;28;20064;-84
2022/02/28 02:55:48;;;;;;;15.77;10.73;;;;;;;-1.96;100.00;66575.47;5035432;28;20044;-84
2022/02/28 02:58:14;;;;;;;17.65;10.85;;;;;;;-1.99;100.00;66569.50;5043743;28;20312;-83
2022/02/28 03:00:45;;;;;;;14.95;9.77;;;;;;;-2.03;100.00;66559.81;5054759;28;20041;-83
2022/02/28 03:03:14;;;;;;;17.52;11.35;;;;;;;-2.05;100.00;66554.97;5062549;28;20502;-83
2022/02/28 03:05:40;;;;;;;19.95;11.63;;;;;;;-2.09;100.00;66553.09;5038050;28;20481;-83
2022/02/28 03:08:05;;;;;;;16.52;11.25;;;;;;;-2.11;100.00;66550.84;5052837;28;20053;-83
2022/02/28 03:10:31;;;;;;;17.83;11.50;;;;;;;-2.14;100.00;66547.47;5035340;28;20045;-84
2022/02/28 03:12:57;;;;;;;17.50;10.85;;;;;;;-2.12;100.00;66552.88;5035754;28;20087;-83
2022/02/28 03:15:22;;;;;;;15.65;10.75;;;;;;;-2.14;100.00;66550.06;5034108;28;20041;-83
2022/02/28 03:17:47;;;;;;;15.93;10.13;;;;;;;-2.18;100.00;66545.59;5039490;28;20053;-83
2022/02/28 03:20:13;;;;;;;17.77;11.10;;;;;;;-2.13;100.00;66551.19;5032099;28;20049;-83
2022/02/28 03:22:38;;;;;;;18.83;11.20;;;;;;;-2.25;100.00;66535.69;5040716;28;20044;-84
2022/02/28 03:25:04;;;;;;;17.70;10.35;;;;;;;-2.23;100.00;66537.94;5046649;28;20260;-84
2022/02/28 03:27:33;;;;;;;16.00;9.60;;;;;;;-2.35;100.00;66521.88;5035526;28;20049;-84
2022/02/28 03:29:58;;;;;;;16.50;9.87;;;;;;;-2.26;100.00;66537.19;5038631;28;20041;-84
2022/02/28 03:32:24;;;;;;;17.60;11.20;;;;;;;-2.29;100.00;66534.38;5065274;28;20767;-84
2022/02/28 03:34:50;;;;;;;18.88;11.20;;;;;;;-2.36;100.00;66523.34;5040716;28;20049;-85
2022/02/28 03:37:15;;;;;;;18.95;11.48;;;;;;;-2.31;100.00;66531.56;5042998;28;20401;-84
2022/02/28 03:39:40;;;;;;;17.73;11.55;;;;;;;-2.34;100.00;66533.41;5063234;28;20045;-83
2022/02/28 03:42:06;;;;;;;15.70;10.32;;;;;;;-2.32;100.00;66530.44;5030410;28;20049;-84
2022/02/28 03:44:31;;;;;;;19.05;11.88;;;;;;;-2.34;100.00;66528.19;5008937;28;20056;-83
2022/02/28 03:46:56;;;;;;;17.10;10.88;;;;;;;-2.38;100.00;66526.31;5030494;28;20045;-85
2022/02/28 03:49:22;;;;;;;17.27;10.23;;;;;;;-2.44;100.00;66519.59;5037014;28;20120;-84
2022/02/28 03:51:47;;;;;;;17.67;11.55;;;;;;;-2.40;100.00;66518.84;5062775;28;20409;-83
2022/02/28 03:54:13;;;;;;;18.30;10.75;;;;;;;-2.41;100.00;66520.34;5040282;28;20394;-84
2022/02/28 03:56:41;;;;;;;18.35;11.70;;;;;;;-2.38;100.00;66523.72;5035464;28;20049;-84
2022/02/28 03:59:08;;;;;;;19.08;11.38;;;;;;;-2.41;100.00;66517.75;5021394;28;20472;-83
2022/02/28 04:01:33;;;;;;;19.80;11.07;;;;;;;-2.44;100.00;66517.00;5038253;28;20117;-84
2022/02/28 04:03:59;;;;;;;17.13;10.88;;;;;;;-2.40;100.00;66524.63;5035991;28;20147;-83
2022/02/28 04:06:25;;;;;;;14.48;10.63;;;;;;;-2.42;100.00;66519.22;5048148;28;20501;-83
2022/02/28 04:08:50;;;;;;;17.70;11.07;;;;;;;-2.41;100.00;66517.75;5046474;28;20060;-83
2022/02/28 04:11:15;;;;;;;20.10;11.55;;;;;;;-2.41;100.00;66518.31;5030381;28;20521;-82
2022/02/28 04:13:41;;;;;;;18.10;11.77;;;;;;;-2.45;100.00;66516.41;5045581;28;20159;-83
2022/02/28 04:16:06;;;;;;;20.65;12.05;;;;;;;-2.48;100.00;66512.50;5034708;28;20049;-84
2022/02/28 04:18:32;;;;;;;20.45;12.48;;;;;;;-2.50;100.00;66510.81;5029431;28;20041;-84
2022/02/28 04:20:57;;;;;;;19.70;12.45;;;;;;;-2.53;100.00;66508.00;5036758;28;20133;-84
2022/02/28 04:23:23;;;;;;;17.13;11.05;;;;;;;-2.55;100.00;66508.38;5037808;28;20056;-84
2022/02/28 04:25:49;;;;;;;20.42;12.65;;;;;;;-2.56;100.00;66504.06;5031061;28;20460;-84
2022/02/28 04:28:14;;;;;;;20.13;12.48;;;;;;;-2.58;100.00;66502.41;5032406;28;20037;-84
2022/02/28 04:30:39;;;;;;;20.58;11.77;;;;;;;-2.56;100.00;66502.03;5039591;28;20049;-84
2022/02/28 04:33:05;;;;;;;18.73;12.13;;;;;;;-2.61;100.00;66493.81;5017954;28;20046;-83
2022/02/28 04:35:30;;;;;;;17.75;10.85;;;;;;;-2.72;100.00;66484.66;5062249;28;20037;-83
2022/02/28 04:37:57;;;;;;;19.13;11.25;;;;;;;-2.75;100.00;66478.13;5047415;28;20049;-84
2022/02/28 04:40:22;;;;;;;20.75;12.73;;;;;;;-2.61;100.00;66493.25;5063130;28;20131;-83
2022/02/28 04:42:49;;;;;;;17.85;10.80;;;;;;;-2.77;100.00;66481.63;5038787;28;20116;-84
2022/02/28 04:45:14;;;;;;;15.65;10.90;;;;;;;-2.70;100.00;66488.94;5035667;28;20076;-84
2022/02/28 04:47:41;;;;;;;19.65;12.10;;;;;;;-2.67;100.00;66489.69;5043283;28;20107;-82
2022/02/28 04:50:06;;;;;;;19.90;11.95;;;;;;;-2.76;100.00;66482.22;5047574;28;20049;-83
2022/02/28 04:52:32;;;;;;;18.10;11.20;;;;;;;-2.80;100.00;66480.31;5022345;28;20045;-83
2022/02/28 04:54:57;;;;;;;20.77;11.82;;;;;;;-2.74;100.00;66481.84;5035719;28;20425;-83
2022/02/28 04:57:22;;;;;;;19.33;11.93;;;;;;;-2.76;100.00;66482.22;5036543;28;20041;-84
2022/02/28 04:59:48;;;;;;;21.45;11.75;;;;;;;-2.76;100.00;66484.81;5045860;28;20057;-83
2022/02/28 05:02:13;;;;;;;20.27;12.75;;;;;;;-2.74;100.00;66484.44;5045583;28;20099;-83
2022/02/28 05:04:40;;;;;;;19.15;11.98;;;;;;;-2.72;100.00;66486.69;5040946;28;20080;-83
2022/02/28 05:07:05;;;;;;;23.02;13.00;;;;;;;-2.70;100.00;66488.94;5036139;28;20515;-84
2022/02/28 05:09:30;;;;;;;18.92;12.30;;;;;;;-2.71;100.00;66493.00;5043200;28;20073;-84
2022/02/28 05:11:56;;;;;;;18.90;12.55;;;;;;;-2.77;100.00;66478.47;5037657;28;20045;-82
2022/02/28 05:14:22;;;;;;;24.45;13.65;;;;;;;-2.86;100.00;66468.94;5068838;28;20061;-83
2022/02/28 05:16:47;;;;;;;19.73;10.88;;;;;;;-2.85;100.00;66475.28;5037931;28;20056;-83
2022/02/28 05:19:13;;;;;;;21.95;12.40;;;;;;;-2.80;100.00;66477.72;5051309;28;20520;-82
2022/02/28 05:21:38;;;;;;;23.80;11.50;;;;;;;-2.92;100.00;66464.25;5039314;28;20508;-82
2022/02/28 05:24:04;;;;;;;18.50;12.25;;;;;;;-2.78;100.00;66477.38;5026173;28;20049;-83
2022/02/28 05:26:29;;;;;;;21.40;13.13;;;;;;;-2.77;100.00;66478.47;5051141;28;20050;-84
2022/02/28 05:28:57;;;;;;;16.88;10.48;;;;;;;-2.85;100.00;66472.69;5035535;28;20056;-83
2022/02/28 05:31:22;;;;;;;19.38;12.57;;;;;;;-2.70;100.00;66483.16;5042698;28;20098;-84
2022/02/28 05:33:48;;;;;;;19.80;11.75;;;;;;;-2.76;100.00;66477.00;5057549;28;20034;-82
2022/02/28 05:36:19;;;;;;;18.98;11.75;;;;;;;-2.77;100.00;66481.06;5040353;28;20056;-83
2022/02/28 05:38:46;;;;;;;21.48;13.73;;;;;;;-2.78;100.00;66480.53;5040823;28;20050;-82
2022/02/28 05:41:12;;;;;;;19.88;12.13;;;;;;;-2.79;100.00;66478.84;5069950;28;20057;-83
2022/02/28 05:43:38;;;;;;;23.90;12.75;;;;;;;-2.82;100.00;66473.44;5036428;28;20038;-83
2022/02/28 05:46:05;;;;;;;19.15;11.77;;;;;;;-2.88;100.00;66463.53;5049521;28;20037;-82
2022/02/28 05:48:31;;;;;;;22.50;13.48;;;;;;;-2.82;100.00;66473.44;5039648;28;20053;-83
2022/02/28 05:50:59;;;;;;;21.60;13.43;;;;;;;-2.85;100.00;66466.91;5038544;28;20519;-83
2022/02/28 05:53:32;;;;;;;22.25;12.50;;;;;;;-2.83;100.00;66471.75;5054647;28;20375;-83
2022/02/28 05:55:58;;;;;;;21.80;11.95;;;;;;;-2.84;100.00;66473.78;5040804;28;20090;-82
2022/02/28 05:58:25;;;;;;;19.90;13.13;;;;;;;-2.83;100.00;66477.50;5037369;28;20088;-82
2022/02/28 06:00:53;;;;;;;21.35;12.68;;;;;;;-2.84;100.00;66473.25;5000339;28;20152;-82
2022/02/28 06:03:20;;;;;;;20.63;13.40;;;;;;;-2.78;100.00;66479.97;5048667;28;20045;-83
2022/02/28 06:05:46;;;;;;;19.05;12.52;;;;;;;-2.84;100.00;66470.63;5043967;28;20036;-83
2022/02/28 06:08:11;;;;;;;19.50;12.25;;;;;;;-2.80;100.00;66478.28;5040256;28;20048;-82
2022/02/28 06:10:36;;;;;;;20.55;13.18;;;;;;;-2.83;100.00;66472.31;5042154;28;20049;-82
2022/02/28 06:13:03;;;;;;;18.77;12.57;;;;;;;-2.83;100.00;66474.34;5043884;28;21966;-82
2022/02/28 06:15:29;;;;;;;24.10;13.45;;;;;;;-2.86;100.00;66471.00;5062547;28;20045;-84
2022/02/28 06:17:59;;;;;;;19.88;12.93;;;;;;;-2.85;100.00;66474.72;5036979;28;20048;-83
2022/02/28 06:20:31;;;;;;;21.90;14.10;;;;;;;-2.87;100.00;66475.66;5045219;28;20496;-83
2022/02/28 06:22:58;;;;;;;23.27;13.70;;;;;;;-2.86;100.00;66471.56;5048673;28;20444;-83
2022/02/28 06:25:24;;;;;;;22.48;14.32;;;;;;;-2.85;100.00;66472.09;5050823;28;20052;-84
2022/02/28 06:28:03;;;;;;;21.38;14.18;;;;;;;-2.86;100.00;66468.38;5041326;28;20611;-83
2022/02/28 06:30:29;;;;;;;23.48;14.60;;;;;;;-2.89;100.00;66467.63;5033179;28;20041;-84
2022/02/28 06:32:56;;;;;;;21.60;13.10;;;;;;;-2.89;100.00;66467.63;5073762;28;20045;-83
2022/02/28 06:35:35;;;;;;;20.95;13.73;;;;;;;-2.86;100.00;66471.56;5038879;28;20049;-83
2022/02/28 06:38:05;;;;;;;22.77;13.27;;;;;;;-2.90;100.00;66461.88;5054222;28;20107;-83
2022/02/28 06:40:32;;;;;;;20.70;12.95;;;;;;;-2.83;100.00;66474.34;5034555;28;20401;-85
2022/02/28 06:42:59;;;;;;;22.05;12.93;;;;;;;-2.82;100.00;66475.47;5050171;28;20137;-84
2022/02/28 06:45:24;;;;;;;22.73;13.43;;;;;;;;;;5047103;28;20131;-83
2022/02/28 06:47:51;;;;;;;24.17;14.10;;;;;;;-2.69;100.00;66487.44;5038512;28;20046;-83
2022/02/28 06:50:27;;;;;;;23.30;13.30;;;;;;;-2.72;100.00;66484.09;5059627;28;20064;-83
2022/02/28 06:52:54;;;;;;;18.83;12.68;;;;;;;-2.68;100.00;66491.16;5034714;28;20041;-84
2022/02/28 06:55:20;;;;;;;19.80;12.43;;;;;;;-2.56;100.00;66502.03;5055915;28;20053;-84
2022/02/28 06:57:47;;;;;;;19.73;11.23;;;;;;;-2.50;100.00;66511.38;5036177;28;20114;-84
2022/02/28 07:00:14;;;;;;;17.17;11.90;;;;;;;-2.41;100.00;66520.91;5053743;28;20040;-83
2022/02/28 07:02:40;;;;;;;20.88;12.50;;;;;;;-2.45;100.00;66513.25;5047746;28;20041;-84
2022/02/28 07:05:05;;;;;;;21.30;13.18;;;;;;;-2.42;100.00;66517.16;5080612;28;20124;-83
2022/02/28 07:07:31;;;;;;;19.80;12.82;;;;;;;-2.23;100.00;66537.38;5042737;28;20561;-83
2022/02/28 07:09:57;;;;;;;24.27;12.40;;;;;;;-2.09;100.00;66553.63;5045340;28;20041;-83
2022/02/28 07:12:23;;;;;;;18.40;13.07;;;;;;;-1.88;100.00;66578.69;5056051;28;20568;-83
2022/02/28 07:14:49;;;;;;;19.63;12.05;;;;;;;-1.73;100.00;66594.97;5034959;28;20049;-83
2022/02/28 07:17:14;;;;;;;18.00;12.70;;;;;;;;;;5036956;28;20084;-84
2022/02/28 07:19:39;;;;;;;17.35;12.75;;;;;;;-1.35;100.00;66634.47;5037752;28;20041;-83
2022/02/28 07:22:05;;;;;;;15.45;9.88;;;;;;;-1.24;100.00;66644.19;5047366;28;20048;-84
2022/02/28 07:24:30;;;;;;;17.17;9.70;;;;;;;-1.08;100.00;66661.06;5053155;28;20036;-83
2022/02/28 07:26:55;;;;;;;14.38;10.80;;;;;;;-0.89;100.00;66687.06;5035807;28;20044;-83
2022/02/28 07:29:21;;;;;;;17.15;10.68;;;;;;;-0.88;100.00;66686.13;5034361;28;20037;-85
2022/02/28 07:31:46;;;;;;;16.75;11.38;;;;;;;-0.69;100.00;66709.53;5045599;28;20064;-82
2022/02/28 07:34:12;;;;;;;15.65;9.27;;;;;;;-0.52;100.00;66725.47;5035267;28;20038;-82
2022/02/28 07:36:37;;;;;;;15.27;9.77;;;;;;;;;;5043858;28;20040;-84
2022/02/28 07:39:04;;;;;;;14.15;8.93;;;;;;;-0.28;100.00;66749.28;5034391;28;20044;-84
2022/02/28 07:41:29;;;;;;;15.05;11.25;;;;;;;-0.15;100.00;66765.94;5055537;28;20049;-83
2022/02/28 07:43:55;;;;;;;17.58;9.48;;;;;;;-0.02;100.00;66777.94;5041741;28;20228;-85
2022/02/28 07:46:21;;;;;;;14.98;9.25;;;;;;;0.14;100.00;66801.16;5044521;28;20040;-83
2022/02/28 07:48:46;;;;;;;15.32;8.95;;;;;;;;;;5040219;28;20045;-85
2022/02/28 07:51:12;;;;;;;15.63;11.48;;;;;;;0.41;99.54;66825.16;5045072;28;20410;-85
2022/02/28 07:53:37;;;;;;;15.85;9.40;;;;;;;0.48;98.71;66837.72;5055517;28;20393;-85
2022/02/28 07:56:03;;;;;;;15.43;9.55;;;;;;;0.55;97.71;66843.53;5040080;28;20041;-85
2022/02/28 07:58:28;;;;;;;16.83;10.63;;;;;;;0.64;97.71;66851.03;5029660;28;20116;-86
2022/02/28 08:00:53;;;;;;;17.65;10.93;;;;;;;;;;5056739;28;20040;-85
2022/02/28 08:03:19;;;;;;;17.60;9.13;;;;;;;;;;5017608;28;20045;-85
2022/02/28 08:05:44;;;;;;;15.93;10.07;;;;;;;0.99;95.62;66894.53;5038157;28;20046;-84
2022/02/28 08:08:09;;;;;;;17.42;10.20;;;;;;;1.09;95.11;66905.78;5039802;28;20037;-86
2022/02/28 08:10:36;;;;;;;14.65;10.38;;;;;;;1.19;95.99;66913.31;5033505;28;20041;-85
2022/02/28 08:13:02;;;;;;;15.13;8.27;;;;;;;1.23;94.35;66915.19;5051461;28;20068;-86
2022/02/28 08:15:27;;;;;;;16.42;10.75;;;;;;;1.34;95.20;66927.56;5032954;28;20073;-87
2022/02/28 08:17:52;;;;;;;16.48;10.73;;;;;;;1.38;94.96;66931.50;5031811;28;20049;-84
2022/02/28 08:20:17;;;;;;;14.63;9.10;;;;;;;1.50;93.37;66945.56;5067867;28;20056;-84
2022/02/28 08:22:43;;;;;;;14.15;9.98;;;;;;;1.53;93.64;66948.97;5053527;28;20044;-87
2022/02/28 08:25:09;;;;;;;15.95;10.50;;;;;;;1.61;93.43;66960.00;5034840;28;20043;-86
2022/02/28 08:27:36;;;;;;;16.13;11.00;;;;;;;1.72;93.24;66969.22;5060699;28;20053;-85
2022/02/28 08:30:03;;;;;;;15.07;10.00;;;;;;;1.85;93.43;66983.88;5040608;28;20091;-87
2022/02/28 08:32:28;;;;;;;14.27;9.98;;;;;;;;;;5063303;28;20040;-86
2022/02/28 08:34:54;;;;;;;15.15;10.82;;;;;;;2.02;91.49;67005.63;5044703;28;20049;-85
2022/02/28 08:37:19;;;;;;;13.20;8.13;;;;;;;2.12;90.08;67015.78;5043511;28;20040;-87
2022/02/28 08:39:45;;;;;;;15.32;9.82;;;;;;;2.22;90.37;67030.22;5042068;28;20116;-88
2022/02/28 08:42:10;;;;;;;13.77;10.20;;;;;;;2.38;89.99;67047.69;5039911;28;20055;-87
2022/02/28 08:44:36;;;;;;;15.25;9.45;;;;;;;2.40;89.73;67047.31;5052994;28;20050;-87
2022/02/28 08:47:01;;;;;;;17.13;10.07;;;;;;;2.51;89.76;67055.97;5056742;28;20033;-88
2022/02/28 08:49:27;;;;;;;14.23;9.27;;;;;;;2.59;88.84;67065.56;5043721;28;20041;-87
2022/02/28 08:51:54;;;;;;;14.13;9.07;;;;;;;2.79;87.07;67089.56;5032360;28;20048;-87
2022/02/28 08:54:20;;;;;;;14.85;9.88;;;;;;;2.88;86.94;67105.56;5054086;28;20158;-86
2022/02/28 08:56:45;;;;;;;16.98;9.80;;;;;;;2.98;86.90;67110.44;5040758;28;20049;-88
2022/02/28 08:59:11;;;;;;;13.68;8.38;;;;;;;3.12;86.09;67126.22;5042542;28;20045;-87
2022/02/28 09:01:37;;;;;;;13.27;8.80;;;;;;;3.21;83.01;67133.19;5042204;28;20048;-87
2022/02/28 09:04:02;;;;;;;15.45;8.77;;;;;;;3.29;82.76;67137.50;5038368;28;20046;-87
2022/02/28 09:06:28;;;;;;;13.27;8.48;;;;;;;3.44;83.01;67161.19;5043409;28;20048;-89
2022/02/28 09:08:54;;;;;;;11.40;7.00;;;;;;;3.52;82.13;67167.59;5034245;28;20045;-87
2022/02/28 09:11:21;;;;;;;11.73;8.02;;;;;;;3.65;82.15;67182.22;5039018;28;20136;-88
2022/02/28 09:13:48;;;;;;;13.70;9.00;;;;;;;;;;5045413;28;20052;-87
2022/02/28 09:16:13;;;;;;;13.65;7.07;;;;;;;3.86;77.80;67208.00;5046468;28;20520;-89
2022/02/28 09:18:38;;;;;;;11.80;8.30;;;;;;;3.98;78.39;67218.34;5040140;28;20041;-86
2022/02/28 09:21:04;;;;;;;12.02;7.70;;;;;;;4.03;78.35;67224.56;5042167;28;20545;-86
2022/02/28 09:23:29;;;;;;;12.07;8.35;;;;;;;4.04;77.97;67227.75;5025224;28;20437;-87
2022/02/28 09:25:54;;;;;;;11.43;8.27;;;;;;;;;;5040653;28;20041;-86
2022/02/28 09:28:20;;;;;;;11.18;5.93;;;;;;;4.32;73.89;67258.22;5032269;28;20086;-86
2022/02/28 09:30:45;;;;;;;12.80;7.50;;;;;;;4.30;74.88;67253.91;5049615;28;20594;-87
2022/02/28 09:33:11;;;;;;;10.43;6.25;;;;;;;4.34;74.56;67261.03;5034370;28;20362;-87
2022/02/28 09:35:36;;;;;;;13.38;7.95;;;;;;;4.41;74.38;67266.31;5051646;28;20503;-86
2022/02/28 09:38:02;;;;;;;13.00;8.05;;;;;;;4.49;75.09;67274.78;5035931;28;20456;-89
2022/02/28 09:40:30;;;;;;;11.85;7.88;;;;;;;4.53;75.12;67282.50;5057025;28;20051;-87
2022/02/28 09:42:59;;;;;;;13.70;7.93;;;;;;;4.59;74.65;67290.78;5055439;28;20527;-86
2022/02/28 09:45:25;;;;;;;12.45;7.13;;;;;;;;;;5066896;28;20041;-87
2022/02/28 09:47:50;;;;;;;12.15;7.45;;;;;;;4.98;73.17;67329.00;5050528;28;20049;-88
2022/02/28 09:50:16;;;;;;;11.57;8.43;;;;;;;5.14;73.46;67347.03;5071332;28;20136;-87
2022/02/28 09:52:41;;;;;;;12.18;7.93;;;;;;;5.13;73.20;67345.38;5037746;28;20064;-87
2022/02/28 09:55:09;;;;;;;13.00;7.80;;;;;;;5.12;71.07;67344.22;5072158;28;20133;-88
2022/02/28 09:57:35;;;;;;;10.32;7.50;;;;;;;5.08;70.00;67340.28;5045164;28;20041;-87
2022/02/28 10:00:00;;;;;;;10.13;7.32;;;;;;;5.07;68.01;67339.16;5043020;28;20064;-87
2022/02/28 10:02:27;;;;;;;9.18;6.70;;;;;;;5.14;69.21;67346.50;5045377;28;20498;-87
2022/02/28 10:04:53;;;;;;;10.43;7.28;;;;;;;5.19;68.34;67352.69;5037482;28;20178;-87
2022/02/28 10:07:20;;;;;;;12.43;7.10;;;;;;;;;;5044826;28;20106;-89
2022/02/28 10:09:45;;;;;;;13.32;7.15;;;;;;;;;;5066827;28;20412;-86
2022/02/28 10:12:11;;;;;;;12.75;7.72;;;;;;;5.49;65.80;67385.47;5042394;28;20053;-86
2022/02/28 10:14:36;;;;;;;12.00;7.43;;;;;;;;;;5042541;28;20056;-87
2022/02/28 10:17:03;;;;;;;13.25;7.78;;;;;;;;;;5043391;28;20123;-87
2022/02/28 10:19:30;;;;;;;11.02;7.07;;;;;;;5.49;65.59;67385.47;5041760;28;20125;-87
2022/02/28 10:22:01;;;;;;;14.07;7.90;;;;;;;5.47;66.94;67383.22;5046469;28;20104;-86
2022/02/28 10:24:34;;;;;;;13.25;8.13;;;;;;;5.63;68.13;67400.72;5054119;28;20379;-88
2022/02/28 10:27:00;;;;;;;11.32;7.50;;;;;;;5.76;67.27;67414.84;5045706;28;20489;-88
2022/02/28 10:29:28;;;;;;;11.70;8.77;;;;;;;5.84;67.94;67424.47;5050973;28;20037;-87
2022/02/28 10:31:59;;;;;;;13.05;8.80;;;;;;;5.86;66.22;67428.78;5035032;28;20028;-88
2022/02/28 10:34:27;;;;;;;14.27;9.68;;;;;;;5.86;67.83;67428.78;5042983;28;20630;-86
2022/02/28 10:36:58;;;;;;;12.43;7.63;;;;;;;5.94;64.71;67429.94;5043442;28;20201;-86
2022/02/28 10:39:26;;;;;;;14.48;11.23;;;;;;;6.01;66.93;67445.78;5047293;28;20045;-87
2022/02/28 10:41:53;;;;;;;16.67;10.57;;;;;;;6.07;67.77;67441.41;5047644;28;20038;-86
2022/02/28 10:44:20;;;;;;;14.55;8.68;;;;;;;6.05;66.14;67447.66;5045745;28;20061;-87
2022/02/28 10:46:47;;;;;;;15.32;8.38;;;;;;;;;;5074595;28;20160;-87
2022/02/28 10:49:28;;;;;;;13.43;7.55;;;;;;;6.07;64.88;67441.41;5042191;28;20044;-84
2022/02/28 10:52:03;;;;;;;17.05;9.63;;;;;;;;;;5046529;28;20126;-88
2022/02/28 10:54:32;;;;;;;14.10;9.25;;;;;;;;;;5053375;28;20398;-91
2022/02/28 10:56:57;;;;;;;;;;;;;;;;;;5078577;28;20048;-89
2022/02/28 10:59:38;;;;;;;17.23;10.90;;;;;;;6.41;66.25;67487.22;5072058;28;19920;-88
2022/02/28 11:02:04;;;;;;;16.75;10.15;;;;;;;6.58;64.76;67505.31;5038771;28;20486;-88
2022/02/28 11:04:32;;;;;;;20.77;11.68;;;;;;;6.76;64.78;67520.38;5037037;28;20037;-87
2022/02/28 11:06:57;;;;;;;18.02;11.85;;;;;;;;;;5040962;28;20049;-88
2022/02/28 11:09:46;;;;;;;15.88;11.18;;;;;;;6.85;66.30;67530.56;5043274;28;20042;-90
2022/02/28 11:12:39;;;;;;;;;;;;;;;6.98;63.45;67545.25;5040674;28;20517;-91
2022/02/28 11:15:09;;;;;;;15.32;9.38;;;;;;;;;;5036020;28;19917;-89
2022/02/28 11:17:35;;;;;;;14.52;8.20;;;;;;;;;;5052653;28;20049;-89
2022/02/28 11:20:06;;;;;;;13.50;8.02;;;;;;;;;;5047464;28;20049;-90
2022/02/28 11:22:31;;;;;;;14.13;9.80;;;;;;;;;;5065324;28;20078;-90
2022/02/28 11:24:56;;;;;;;15.15;9.90;;;;;;;;;;5069481;28;20124;-89
2022/02/28 11:27:22;;;;;;;13.70;9.75;;;;;;;;;;5044735;28;20092;-91